Time;durP1;ratioP1;P1;durP2;ratioP2;P2;SDS_P1;SDS_P2;PMS_P1;PMS_P2;Temp;Humidity;BMP_temperature;BMP_pressure;BME280_temperature;BME280_humidity;BME280_pressure;Samples;Min_cycle;Max_cycle;Signal;HPM_P1;HPM_P2
2023/12/02 00:00:43;;;;;;;6.72;4.88;;;;;;;;;;8276561;28;20036;-56
2023/12/02 00:04:43;;;;;;;6.97;4.97;;;;;;;;;;8279732;28;20021;-56
2023/12/02 00:08:44;;;;;;;6.57;4.80;;;;;;;;;;8280237;28;20770;-57
2023/12/02 00:12:44;;;;;;;7.60;4.77;;;;;;;;;;8278989;28;20066;-57
2023/12/02 00:16:44;;;;;;;6.15;4.88;;;;;;;;;;8276285;28;20269;-56
2023/12/02 00:20:44;;;;;;;5.72;4.15;;;;;;;;;;8276590;28;20132;-57
2023/12/02 00:24:44;;;;;;;6.15;4.63;;;;;;;;;;8276685;28;20044;-57
2023/12/02 00:28:45;;;;;;;5.82;4.10;;;;;;;;;;8273933;28;20157;-57
2023/12/02 00:32:45;;;;;;;5.72;4.07;;;;;;;;;;8277251;28;20061;-57
2023/12/02 00:36:46;;;;;;;6.00;4.65;;;;;;;;;;8276080;28;20473;-57
2023/12/02 00:40:46;;;;;;;6.18;4.03;;;;;;;;;;8277946;28;20028;-57
2023/12/02 00:44:46;;;;;;;6.40;4.25;;;;;;;;;;8279112;28;21440;-57
2023/12/02 00:48:48;;;;;;;8.52;4.50;;;;;;;;;;8279657;28;20080;-57
2023/12/02 00:52:48;;;;;;;6.93;4.57;;;;;;;;;;8279072;28;20119;-57
2023/12/02 00:56:48;;;;;;;7.03;4.40;;;;;;;;;;8279364;28;21432;-57
2023/12/02 01:00:48;;;;;;;5.93;4.18;;;;;;;;;;8278368;28;20040;-57
2023/12/02 01:04:48;;;;;;;6.97;4.90;;;;;;;;;;8277344;28;20036;-57
2023/12/02 01:08:49;;;;;;;6.95;4.85;;;;;;;;;;8261889;28;20033;-56
2023/12/02 01:12:49;;;;;;;5.82;4.28;;;;;;;;;;8279426;28;20025;-56
2023/12/02 01:16:49;;;;;;;5.32;4.15;;;;;;;;;;8279067;28;20131;-56
2023/12/02 01:20:49;;;;;;;7.13;4.43;;;;;;;;;;8283220;28;20036;-57
2023/12/02 01:24:49;;;;;;;7.63;5.25;;;;;;;;;;8284635;28;22191;-56
2023/12/02 01:28:49;;;;;;;6.75;4.72;;;;;;;;;;8284781;28;20118;-56
2023/12/02 01:32:50;;;;;;;6.32;4.85;;;;;;;;;;8284082;28;20034;-56
2023/12/02 01:36:50;;;;;;;6.35;4.43;;;;;;;;;;8264936;28;20032;-57
2023/12/02 01:40:50;;;;;;;6.47;4.93;;;;;;;;;;8284015;28;20122;-54
2023/12/02 01:44:50;;;;;;;6.43;4.43;;;;;;;;;;8266456;28;20037;-56
2023/12/02 01:48:50;;;;;;;5.72;4.03;;;;;;;;;;8282415;28;20053;-56
2023/12/02 01:52:51;;;;;;;8.57;4.25;;;;;;;;;;8280076;28;20040;-56
2023/12/02 01:56:51;;;;;;;7.40;5.27;;;;;;;;;;8283361;28;20087;-56
2023/12/02 02:00:51;;;;;;;5.10;4.03;;;;;;;;;;8282991;28;21285;-55
2023/12/02 02:04:51;;;;;;;6.07;4.43;;;;;;;;;;8282530;28;20143;-56
2023/12/02 02:08:51;;;;;;;6.25;4.50;;;;;;;;;;8278140;28;21046;-56
2023/12/02 02:12:52;;;;;;;7.68;4.70;;;;;;;;;;8276701;28;20148;-56
2023/12/02 02:16:52;;;;;;;7.32;4.85;;;;;;;;;;8282220;28;20033;-56
2023/12/02 02:20:53;;;;;;;8.15;5.10;;;;;;;;;;8283628;28;20049;-57
2023/12/02 02:24:54;;;;;;;7.57;5.03;;;;;;;;;;8285670;28;20041;-56
2023/12/02 02:28:54;;;;;;;6.17;4.60;;;;;;;;;;8285708;28;20033;-55
2023/12/02 02:32:54;;;;;;;6.13;4.47;;;;;;;;;;8285536;28;20272;-56
2023/12/02 02:36:54;;;;;;;5.78;4.45;;;;;;;;;;8286060;28;20057;-56
2023/12/02 02:40:55;;;;;;;7.18;4.88;;;;;;;;;;8286130;28;20659;-55
2023/12/02 02:44:55;;;;;;;6.18;4.22;;;;;;;;;;8286185;28;20099;-56
2023/12/02 02:48:55;;;;;;;6.82;4.75;;;;;;;;;;8285571;28;20041;-56
2023/12/02 02:52:55;;;;;;;6.40;4.72;;;;;;;;;;8281439;28;20091;-56
2023/12/02 02:56:55;;;;;;;6.95;4.15;;;;;;;;;;8283634;28;20025;-56
2023/12/02 03:00:56;;;;;;;6.53;3.88;;;;;;;;;;8283769;28;20037;-57
2023/12/02 03:04:56;;;;;;;6.53;4.45;;;;;;;;;;8283981;28;20029;-56
2023/12/02 03:08:56;;;;;;;10.73;5.07;;;;;;;;;;8286379;28;20025;-56
2023/12/02 03:12:56;;;;;;;6.15;4.45;;;;;;;;;;8285383;28;20044;-56
2023/12/02 03:16:57;;;;;;;5.40;4.17;;;;;;;;;;8271385;28;20117;-57
2023/12/02 03:20:58;;;;;;;5.40;4.13;;;;;;;;;;8285360;28;20344;-56
2023/12/02 03:24:58;;;;;;;6.28;4.22;;;;;;;;;;8283579;28;20025;-57
2023/12/02 03:28:58;;;;;;;6.18;4.28;;;;;;;;;;8283045;28;20029;-57
2023/12/02 03:32:58;;;;;;;6.00;4.25;;;;;;;;;;8282178;28;20131;-57
2023/12/02 03:36:59;;;;;;;7.45;4.65;;;;;;;;;;8274535;28;20072;-56
2023/12/02 03:40:59;;;;;;;5.05;3.80;;;;;;;;;;8286579;28;20029;-56
2023/12/02 03:44:59;;;;;;;5.72;3.63;;;;;;;;;;8283355;28;20056;-56
2023/12/02 03:49:00;;;;;;;5.57;3.60;;;;;;;;;;8284239;28;20037;-56
2023/12/02 03:53:00;;;;;;;4.90;3.53;;;;;;;;;;8283481;28;20967;-57
2023/12/02 03:57:00;;;;;;;4.68;3.45;;;;;;;;;;8283854;28;20267;-57
2023/12/02 04:01:01;;;;;;;4.70;3.88;;;;;;;;;;8281570;28;20033;-55
2023/12/02 04:05:01;;;;;;;5.13;3.53;;;;;;;;;;8282651;28;20025;-55
2023/12/02 04:09:01;;;;;;;5.75;4.10;;;;;;;;;;8285335;28;20064;-55
2023/12/02 04:13:01;;;;;;;5.00;3.80;;;;;;;;;;8281551;28;20273;-57
2023/12/02 04:17:01;;;;;;;5.18;3.80;;;;;;;;;;8282922;28;20211;-57
2023/12/02 04:21:04;;;;;;;5.28;3.88;;;;;;;;;;8280905;28;20437;-56
2023/12/02 04:25:04;;;;;;;9.30;3.95;;;;;;;;;;8270422;28;20026;-56
2023/12/02 04:29:05;;;;;;;13.07;4.00;;;;;;;;;;8280973;28;20120;-57
2023/12/02 04:33:05;;;;;;;5.07;3.88;;;;;;;;;;8277682;28;20043;-57
2023/12/02 04:37:05;;;;;;;6.18;3.83;;;;;;;;;;8291097;28;20059;-57
2023/12/02 04:41:06;;;;;;;5.15;4.25;;;;;;;;;;8284289;28;20094;-57
2023/12/02 04:45:07;;;;;;;7.15;4.10;;;;;;;;;;8284553;28;20025;-57
2023/12/02 04:49:08;;;;;;;5.50;3.83;;;;;;;;;;8278693;28;20088;-57
2023/12/02 04:53:09;;;;;;;5.00;3.88;;;;;;;;;;8277626;28;20056;-57
2023/12/02 04:57:09;;;;;;;4.60;3.40;;;;;;;;;;8279263;28;20026;-57
2023/12/02 05:01:09;;;;;;;5.30;3.28;;;;;;;;;;8281644;28;20052;-58
2023/12/02 05:05:10;;;;;;;4.03;2.92;;;;;;;;;;8259697;28;20032;-57
2023/12/02 05:09:10;;;;;;;5.00;3.58;;;;;;;;;;8276782;28;20032;-57
2023/12/02 05:13:10;;;;;;;3.22;2.85;;;;;;;;;;8284831;28;20047;-58
2023/12/02 05:17:10;;;;;;;3.78;3.10;;;;;;;;;;8281683;28;20037;-58
2023/12/02 05:21:10;;;;;;;3.95;3.00;;;;;;;;;;8276271;28;20021;-57
2023/12/02 05:25:11;;;;;;;3.88;2.83;;;;;;;;;;8273629;28;20036;-58
2023/12/02 05:29:11;;;;;;;3.38;2.78;;;;;;;;;;8277482;28;20094;-57
2023/12/02 05:33:12;;;;;;;4.30;3.13;;;;;;;;;;8280783;28;20033;-58
2023/12/02 05:37:12;;;;;;;3.25;2.60;;;;;;;;;;8274860;28;20031;-57
2023/12/02 05:41:12;;;;;;;3.17;2.63;;;;;;;;;;8277948;28;20099;-57
2023/12/02 05:45:13;;;;;;;3.92;3.00;;;;;;;;;;8276234;28;20029;-59
2023/12/02 05:49:13;;;;;;;3.63;2.67;;;;;;;;;;8274518;28;20128;-58
2023/12/02 05:53:13;;;;;;;3.88;2.67;;;;;;;;;;8284055;28;20022;-58
2023/12/02 05:57:13;;;;;;;4.28;2.80;;;;;;;;;;8286008;28;20849;-55
2023/12/02 06:01:20;;;;;;;4.67;3.10;;;;;;;;;;8288042;28;20029;-55
2023/12/02 06:05:21;;;;;;;3.83;3.08;;;;;;;;;;8288865;28;20275;-58
2023/12/02 06:09:21;;;;;;;3.67;3.05;;;;;;;;;;8284168;28;20037;-57
2023/12/02 06:13:21;;;;;;;4.03;2.97;;;;;;;;;;8293168;28;20033;-57
2023/12/02 06:17:21;;;;;;;4.20;2.88;;;;;;;;;;8290025;28;20040;-57
2023/12/02 06:21:21;;;;;;;3.97;3.03;;;;;;;;;;8286605;28;20018;-56
2023/12/02 06:25:22;;;;;;;4.15;2.95;;;;;;;;;;8272315;28;20036;-57
2023/12/02 06:29:22;;;;;;;3.88;2.75;;;;;;;;;;8289617;28;20017;-57
2023/12/02 06:33:22;;;;;;;4.05;3.03;;;;;;;;;;8289086;28;20073;-56
2023/12/02 06:37:23;;;;;;;4.13;2.85;;;;;;;;;;8287448;28;20021;-56
2023/12/02 06:41:24;;;;;;;4.03;2.90;;;;;;;;;;8288094;28;20048;-56
2023/12/02 06:45:24;;;;;;;3.40;2.95;;;;;;;;;;8288698;28;20033;-54
2023/12/02 06:49:24;;;;;;;3.05;2.55;;;;;;;;;;8284500;28;20876;-57
2023/12/02 06:53:25;;;;;;;3.13;2.65;;;;;;;;;;8287319;28;20075;-56
2023/12/02 06:57:25;;;;;;;2.97;2.67;;;;;;;;;;8286244;28;20025;-56
2023/12/02 07:01:29;;;;;;;3.58;2.97;;;;;;;;;;8281311;28;20682;-56
2023/12/02 07:05:30;;;;;;;3.55;2.70;;;;;;;;;;8275725;28;20087;-56
2023/12/02 07:09:30;;;;;;;3.38;2.42;;;;;;;;;;8282768;28;20029;-55
2023/12/02 07:13:30;;;;;;;3.15;2.42;;;;;;;;;;8283480;28;20470;-55
2023/12/02 07:17:31;;;;;;;2.80;2.22;;;;;;;;;;8279074;28;20040;-56
2023/12/02 07:21:31;;;;;;;3.65;2.90;;;;;;;;;;8283068;28;20482;-56
2023/12/02 07:25:33;;;;;;;3.45;2.90;;;;;;;;;;8261166;28;20086;-56
2023/12/02 07:29:33;;;;;;;3.95;2.65;;;;;;;;;;8280511;28;20350;-56
2023/12/02 07:33:33;;;;;;;4.07;2.85;;;;;;;;;;8281025;28;20026;-57
2023/12/02 07:37:34;;;;;;;3.22;2.78;;;;;;;;;;8278482;28;20029;-56
2023/12/02 07:41:34;;;;;;;4.28;3.15;;;;;;;;;;8273680;28;20017;-55
2023/12/02 07:45:34;;;;;;;3.97;2.60;;;;;;;;;;8280776;28;20043;-58
2023/12/02 07:49:34;;;;;;;3.50;2.80;;;;;;;;;;8275050;28;20017;-56
2023/12/02 07:53:34;;;;;;;3.97;2.95;;;;;;;;;;8262370;28;20028;-56
2023/12/02 07:57:36;;;;;;;2.78;2.42;;;;;;;;;;8283379;28;20252;-56
2023/12/02 08:01:36;;;;;;;2.80;2.58;;;;;;;;;;8280482;28;20040;-55
2023/12/02 08:05:36;;;;;;;3.83;2.70;;;;;;;;;;8282554;28;20140;-55
2023/12/02 08:09:36;;;;;;;2.40;2.20;;;;;;;;;;8279845;28;20026;-55
2023/12/02 08:13:37;;;;;;;3.10;2.40;;;;;;;;;;8284740;28;20271;-56
2023/12/02 08:17:37;;;;;;;3.88;2.40;;;;;;;;;;8271991;28;20038;-55
2023/12/02 08:21:37;;;;;;;2.93;2.17;;;;;;;;;;8275567;28;20107;-56
2023/12/02 08:25:37;;;;;;;2.60;2.13;;;;;;;;;;8277054;28;20324;-55
2023/12/02 08:29:38;;;;;;;2.22;2.03;;;;;;;;;;8278732;28;20040;-56
2023/12/02 08:33:38;;;;;;;3.13;2.50;;;;;;;;;;8281089;28;20029;-57
2023/12/02 08:37:38;;;;;;;2.78;2.25;;;;;;;;;;8276890;28;20329;-55
2023/12/02 08:41:38;;;;;;;2.60;2.35;;;;;;;;;;8280460;28;20747;-56
2023/12/02 08:45:39;;;;;;;4.40;2.60;;;;;;;;;;8274521;28;20065;-57
2023/12/02 08:49:39;;;;;;;3.20;2.60;;;;;;;;;;8275982;28;20025;-57
2023/12/02 08:53:39;;;;;;;2.97;2.65;;;;;;;;;;8271094;28;20371;-56
2023/12/02 08:57:39;;;;;;;3.33;3.03;;;;;;;;;;8268292;28;20147;-56
2023/12/02 09:01:39;;;;;;;3.58;2.50;;;;;;;;;;8273506;28;20029;-56
2023/12/02 09:05:40;;;;;;;2.88;2.58;;;;;;;;;;8271939;28;20017;-57
2023/12/02 09:09:40;;;;;;;3.03;2.40;;;;;;;;;;8269546;28;20108;-61
2023/12/02 09:13:42;;;;;;;3.28;2.33;;;;;;;;;;8276525;28;20116;-57
2023/12/02 09:18:00;;;;;;;3.30;2.70;;;;;;;;;;8282738;28;20037;-57
2023/12/02 09:22:00;;;;;;;3.88;2.50;;;;;;;;;;8281442;28;20020;-57
2023/12/02 09:26:04;;;;;;;2.72;2.40;;;;;;;;;;8283342;28;20029;-56
2023/12/02 09:30:06;;;;;;;3.53;2.97;;;;;;;;;;8268191;28;20035;-56
2023/12/02 09:34:26;;;;;;;3.38;2.67;;;;;;;;;;8257941;28;20275;-56
2023/12/02 09:38:27;;;;;;;3.25;2.40;;;;;;;;;;8269564;28;20025;-57
2023/12/02 09:42:27;;;;;;;5.05;2.72;;;;;;;;;;8274888;28;20167;-57
2023/12/02 09:46:37;;;;;;;2.35;2.10;;;;;;;;;;8273153;28;20124;-57
2023/12/02 09:50:45;;;;;;;3.20;2.40;;;;;;;;;;8270955;28;20037;-57
2023/12/02 09:54:46;;;;;;;2.63;2.30;;;;;;;;;;8272209;28;20385;-58
2023/12/02 09:58:46;;;;;;;2.88;2.47;;;;;;;;;;8273963;28;20044;-56
2023/12/02 10:02:49;;;;;;;2.72;2.35;;;;;;;;;;8270896;28;21587;-56
2023/12/02 10:06:50;;;;;;;2.85;2.60;;;;;;;;;;8270148;28;20144;-56
2023/12/02 10:11:07;;;;;;;3.08;2.63;;;;;;;;;;8272338;28;21179;-56
2023/12/02 10:15:09;;;;;;;2.35;2.15;;;;;;;;;;8269912;28;20017;-56
2023/12/02 10:19:12;;;;;;;3.85;2.78;;;;;;;;;;8258654;28;20151;-58
2023/12/02 10:23:12;;;;;;;2.92;2.63;;;;;;;;;;8257722;28;20041;-58
2023/12/02 10:27:17;;;;;;;3.08;2.67;;;;;;;;;;8270692;28;20402;-56
2023/12/02 10:31:23;;;;;;;3.40;2.88;;;;;;;;;;8274236;28;20052;-55
2023/12/02 10:35:29;;;;;;;3.15;2.53;;;;;;;;;;8273174;28;20072;-57
2023/12/02 10:39:29;;;;;;;3.10;2.80;;;;;;;;;;8280233;28;20013;-57
2023/12/02 10:43:37;;;;;;;3.00;2.70;;;;;;;;;;8281223;28;20197;-57
2023/12/02 10:47:37;;;;;;;3.78;2.85;;;;;;;;;;8266430;28;20164;-56
2023/12/02 10:51:40;;;;;;;3.20;2.80;;;;;;;;;;8283478;28;20135;-57
2023/12/02 10:55:45;;;;;;;3.60;2.95;;;;;;;;;;8282779;28;20025;-57
2023/12/02 11:00:12;;;;;;;3.70;3.00;;;;;;;;;;8285005;28;20025;-57
2023/12/02 11:04:15;;;;;;;3.45;2.50;;;;;;;;;;8284196;28;20049;-57
2023/12/02 11:08:21;;;;;;;3.38;2.33;;;;;;;;;;8280270;28;20032;-55
2023/12/02 11:12:21;;;;;;;3.00;2.40;;;;;;;;;;8281990;28;20032;-56
2023/12/02 11:16:25;;;;;;;3.08;2.60;;;;;;;;;;8278265;28;20270;-57
2023/12/02 11:20:28;;;;;;;2.92;2.60;;;;;;;;;;8282010;28;20032;-57
2023/12/02 11:24:41;;;;;;;3.90;2.42;;;;;;;;;;8266248;28;20021;-57
2023/12/02 11:28:47;;;;;;;2.92;2.63;;;;;;;;;;8278183;28;20891;-57
2023/12/02 11:33:02;;;;;;;4.32;2.58;;;;;;;;;;8275336;28;20126;-59
2023/12/02 11:37:12;;;;;;;4.18;3.05;;;;;;;;;;8275665;28;20017;-58
2023/12/02 11:41:12;;;;;;;3.00;2.60;;;;;;;;;;8278903;28;20037;-57
2023/12/02 11:45:19;;;;;;;3.07;2.77;;;;;;;;;;8279871;28;20484;-57
2023/12/02 11:49:31;;;;;;;3.88;2.65;;;;;;;;;;8275677;28;20756;-57
2023/12/02 11:53:34;;;;;;;3.17;2.88;;;;;;;;;;8277382;28;20557;-57
2023/12/02 11:57:37;;;;;;;2.95;2.40;;;;;;;;;;8280827;28;20021;-57
2023/12/02 12:01:44;;;;;;;4.13;2.83;;;;;;;;;;8278002;28;20064;-56
2023/12/02 12:05:55;;;;;;;3.13;2.60;;;;;;;;;;8267078;28;20128;-56
2023/12/02 12:10:10;;;;;;;3.78;2.42;;;;;;;;;;8266910;28;20037;-57
2023/12/02 12:14:11;;;;;;;2.75;2.42;;;;;;;;;;8279956;28;20028;-58
2023/12/02 12:18:13;;;;;;;4.35;2.92;;;;;;;;;;8276616;28;20033;-58
2023/12/02 12:22:13;;;;;;;4.07;2.88;;;;;;;;;;8275424;28;21068;-57
2023/12/02 12:26:14;;;;;;;3.63;3.08;;;;;;;;;;8279246;28;20915;-57
2023/12/02 12:30:14;;;;;;;3.05;2.60;;;;;;;;;;8263672;28;20533;-57
2023/12/02 12:34:14;;;;;;;4.05;3.00;;;;;;;;;;8277342;28;20035;-56
2023/12/02 12:38:15;;;;;;;2.78;2.50;;;;;;;;;;8275968;28;20656;-56
2023/12/02 12:42:21;;;;;;;3.22;2.45;;;;;;;;;;8269090;28;20115;-56
2023/12/02 12:46:25;;;;;;;4.43;3.20;;;;;;;;;;8271328;28;20087;-56
2023/12/02 12:50:28;;;;;;;5.17;3.43;;;;;;;;;;8279166;28;20572;-57
2023/12/02 12:54:30;;;;;;;3.73;3.30;;;;;;;;;;8274641;28;20276;-57
2023/12/02 12:58:30;;;;;;;6.18;3.65;;;;;;;;;;8261210;28;20022;-58
2023/12/02 13:02:33;;;;;;;3.38;2.97;;;;;;;;;;8270615;28;21135;-58
2023/12/02 13:06:36;;;;;;;4.00;3.03;;;;;;;;;;8268292;28;20120;-58
2023/12/02 13:10:37;;;;;;;3.10;2.70;;;;;;;;;;8273740;28;20091;-58
2023/12/02 13:14:45;;;;;;;4.18;2.95;;;;;;;;;;8272058;28;20040;-59
2023/12/02 13:18:45;;;;;;;3.78;2.90;;;;;;;;;;8275707;28;20025;-57
2023/12/02 13:22:46;;;;;;;3.83;2.90;;;;;;;;;;8270391;28;22079;-57
2023/12/02 13:26:46;;;;;;;3.70;3.10;;;;;;;;;;8272235;28;20284;-58
2023/12/02 13:30:46;;;;;;;3.45;2.78;;;;;;;;;;8268228;28;20143;-58
2023/12/02 13:34:46;;;;;;;7.07;3.25;;;;;;;;;;8271942;28;20033;-58
2023/12/02 13:38:56;;;;;;;3.47;2.83;;;;;;;;;;8271170;28;21595;-58
2023/12/02 13:42:57;;;;;;;3.95;3.40;;;;;;;;;;8269013;28;20028;-59
2023/12/02 13:47:05;;;;;;;6.18;3.85;;;;;;;;;;8273732;28;20041;-55
2023/12/02 13:51:09;;;;;;;3.95;3.17;;;;;;;;;;8276259;28;20966;-57
2023/12/02 13:55:09;;;;;;;4.28;3.15;;;;;;;;;;8275643;28;21035;-57
2023/12/02 13:59:13;;;;;;;4.10;3.28;;;;;;;;;;8276377;28;20036;-58
2023/12/02 14:03:16;;;;;;;4.60;3.10;;;;;;;;;;8276832;28;20041;-57
2023/12/02 14:07:36;;;;;;;5.25;3.65;;;;;;;;;;8274665;28;20025;-57
2023/12/02 14:11:37;;;;;;;4.43;3.47;;;;;;;;;;8276897;28;20037;-56
2023/12/02 14:15:38;;;;;;;5.43;3.47;;;;;;;;;;8280496;28;20090;-57
2023/12/02 14:19:45;;;;;;;5.45;3.45;;;;;;;;;;8284362;28;20024;-57
2023/12/02 14:23:50;;;;;;;4.70;3.75;;;;;;;;;;8280522;28;20875;-57
2023/12/02 14:27:59;;;;;;;4.80;3.75;;;;;;;;;;8281793;28;20121;-56
2023/12/02 14:31:59;;;;;;;4.75;3.80;;;;;;;;;;8280385;28;20041;-57
2023/12/02 14:36:09;;;;;;;4.53;3.38;;;;;;;;;;8280523;28;20026;-58
2023/12/02 14:40:27;;;;;;;5.45;4.13;;;;;;;;;;8280322;28;20032;-57
2023/12/02 14:44:30;;;;;;;5.13;3.90;;;;;;;;;;8280911;28;20036;-57
2023/12/02 14:48:31;;;;;;;5.20;3.90;;;;;;;;;;8264697;28;20113;-57
2023/12/02 14:52:31;;;;;;;6.10;4.20;;;;;;;;;;8285323;28;20148;-57
2023/12/02 14:56:32;;;;;;;6.78;4.10;;;;;;;;;;8280694;28;20022;-57
2023/12/02 15:00:32;;;;;;;5.78;4.07;;;;;;;;;;8278027;28;20478;-57
2023/12/02 15:04:32;;;;;;;4.68;3.88;;;;;;;;;;8279315;28;20032;-56
2023/12/02 15:08:39;;;;;;;6.40;4.67;;;;;;;;;;8279661;28;20120;-58
2023/12/02 15:12:42;;;;;;;5.97;4.22;;;;;;;;;;8279402;28;20291;-58
2023/12/02 15:16:43;;;;;;;5.13;3.88;;;;;;;;;;8277216;28;20232;-56
2023/12/02 15:20:48;;;;;;;5.63;4.28;;;;;;;;;;8282851;28;20043;-58
2023/12/02 15:24:48;;;;;;;6.10;4.32;;;;;;;;;;8281235;28;20114;-58
2023/12/02 15:28:49;;;;;;;5.75;4.22;;;;;;;;;;8282521;28;20033;-57
2023/12/02 15:32:50;;;;;;;5.40;4.30;;;;;;;;;;8279673;28;20040;-57
2023/12/02 15:36:50;;;;;;;5.28;4.05;;;;;;;;;;8280499;28;20025;-56
2023/12/02 15:40:51;;;;;;;6.07;4.87;;;;;;;;;;8278845;28;20028;-56
2023/12/02 15:44:52;;;;;;;7.73;4.87;;;;;;;;;;8282043;28;20283;-57
2023/12/02 15:48:52;;;;;;;8.10;5.10;;;;;;;;;;8279926;28;20283;-57
2023/12/02 15:52:53;;;;;;;8.05;5.18;;;;;;;;;;8277047;28;20029;-56
2023/12/02 15:56:55;;;;;;;8.82;5.53;;;;;;;;;;8281148;28;20037;-58
2023/12/02 16:01:01;;;;;;;10.27;5.03;;;;;;;;;;8280808;28;21016;-57
2023/12/02 16:05:02;;;;;;;6.68;4.35;;;;;;;;;;8280217;28;20018;-57
2023/12/02 16:09:03;;;;;;;7.43;4.80;;;;;;;;;;8274700;28;20020;-56
2023/12/02 16:13:07;;;;;;;7.70;5.47;;;;;;;;;;8276845;28;20028;-57
2023/12/02 16:17:11;;;;;;;10.10;6.35;;;;;;;;;;8268762;28;20124;-57
2023/12/02 16:21:14;;;;;;;9.40;6.53;;;;;;;;;;8276056;28;20028;-58
2023/12/02 16:25:15;;;;;;;9.23;6.25;;;;;;;;;;8276724;28;20017;-56
2023/12/02 16:29:16;;;;;;;10.75;7.00;;;;;;;;;;8276433;28;20479;-57
2023/12/02 16:33:17;;;;;;;7.60;5.10;;;;;;;;;;8281170;28;20068;-56
2023/12/02 16:37:18;;;;;;;12.15;7.63;;;;;;;;;;8279927;28;20123;-57
2023/12/02 16:41:18;;;;;;;10.82;5.90;;;;;;;;;;8281079;28;20059;-58
2023/12/02 16:45:20;;;;;;;8.48;6.32;;;;;;;;;;8282209;28;21015;-56
2023/12/02 16:49:22;;;;;;;9.60;6.43;;;;;;;;;;8277523;28;20021;-57
2023/12/02 16:53:23;;;;;;;6.55;5.45;;;;;;;;;;8279478;28;20240;-59
2023/12/02 16:57:26;;;;;;;6.97;5.20;;;;;;;;;;8279786;28;20085;-57
2023/12/02 17:01:37;;;;;;;6.18;4.72;;;;;;;;;;8279550;28;20791;-58
2023/12/02 17:05:37;;;;;;;6.75;5.20;;;;;;;;;;8278999;28;20047;-58
2023/12/02 17:09:38;;;;;;;13.70;6.90;;;;;;;;;;8275786;28;20060;-57
2023/12/02 17:13:44;;;;;;;8.60;5.63;;;;;;;;;;8279932;28;20675;-58
2023/12/02 17:17:44;;;;;;;7.28;4.97;;;;;;;;;;8274152;28;20508;-57
2023/12/02 17:22:11;;;;;;;11.13;7.93;;;;;;;;;;8275133;28;20056;-57
2023/12/02 17:26:11;;;;;;;8.48;5.68;;;;;;;;;;8278094;28;20029;-58
2023/12/02 17:30:12;;;;;;;9.27;7.20;;;;;;;;;;8270867;28;20512;-58
2023/12/02 17:34:12;;;;;;;9.40;6.00;;;;;;;;;;8273351;28;20755;-57
2023/12/02 17:38:12;;;;;;;7.65;5.75;;;;;;;;;;8261811;28;20029;-57
2023/12/02 17:42:12;;;;;;;9.70;6.68;;;;;;;;;;8267931;28;20137;-57
2023/12/02 17:46:14;;;;;;;11.23;7.25;;;;;;;;;;8272009;28;20040;-56
2023/12/02 17:50:14;;;;;;;18.65;9.25;;;;;;;;;;8271383;28;20044;-56
2023/12/02 17:54:14;;;;;;;13.90;6.22;;;;;;;;;;8271603;28;20302;-57
2023/12/02 17:58:14;;;;;;;9.18;6.57;;;;;;;;;;8273396;28;20021;-56
2023/12/02 18:02:15;;;;;;;9.38;5.15;;;;;;;;;;8271228;28;20049;-57
2023/12/02 18:06:16;;;;;;;8.35;5.32;;;;;;;;;;8268521;28;20021;-56
2023/12/02 18:10:16;;;;;;;8.70;6.78;;;;;;;;;;8272025;28;20211;-57
2023/12/02 18:14:16;;;;;;;15.23;7.80;;;;;;;;;;8270773;28;20917;-56
2023/12/02 18:18:17;;;;;;;16.95;9.93;;;;;;;;;;8274426;28;20152;-57
2023/12/02 18:22:18;;;;;;;13.85;7.85;;;;;;;;;;8272856;28;20032;-56
2023/12/02 18:26:18;;;;;;;15.00;9.45;;;;;;;;;;8272760;28;20036;-57
2023/12/02 18:30:18;;;;;;;10.63;7.30;;;;;;;;;;8272594;28;20021;-57
2023/12/02 18:34:18;;;;;;;8.50;5.70;;;;;;;;;;8272004;28;20348;-57
2023/12/02 18:38:19;;;;;;;16.40;8.80;;;;;;;;;;8272720;28;20115;-56
2023/12/02 18:42:19;;;;;;;17.58;10.65;;;;;;;;;;8269710;28;20049;-57
2023/12/02 18:46:19;;;;;;;28.02;16.52;;;;;;;;;;8265165;28;20037;-56
2023/12/02 18:50:19;;;;;;;18.77;12.52;;;;;;;;;;8269566;28;20025;-57
2023/12/02 18:54:19;;;;;;;13.70;7.90;;;;;;;;;;8270448;28;20148;-56
2023/12/02 18:58:21;;;;;;;12.47;6.67;;;;;;;;;;8273968;28;20024;-57
2023/12/02 19:02:21;;;;;;;8.98;6.65;;;;;;;;;;8273171;28;20801;-58
2023/12/02 19:06:21;;;;;;;8.63;6.05;;;;;;;;;;8276548;28;20040;-56
2023/12/02 19:10:22;;;;;;;14.80;8.55;;;;;;;;;;8275009;28;20292;-57
2023/12/02 19:14:22;;;;;;;11.27;7.72;;;;;;;;;;8277835;28;20527;-56
2023/12/02 19:18:22;;;;;;;9.93;6.82;;;;;;;;;;8276330;28;20033;-57
2023/12/02 19:22:24;;;;;;;8.98;6.55;;;;;;;;;;8276743;28;20871;-56
2023/12/02 19:26:26;;;;;;;8.10;5.57;;;;;;;;;;8278227;28;20055;-56
2023/12/02 19:30:26;;;;;;;8.40;5.55;;;;;;;;;;8273990;28;20111;-57
2023/12/02 19:34:27;;;;;;;6.72;5.43;;;;;;;;;;8277429;28;20696;-58
2023/12/02 19:38:28;;;;;;;6.38;5.15;;;;;;;;;;8279353;28;20135;-57
2023/12/02 19:42:28;;;;;;;8.43;5.60;;;;;;;;;;8281745;28;20156;-58
2023/12/02 19:46:28;;;;;;;8.25;5.93;;;;;;;;;;8280185;28;20040;-59
2023/12/02 19:50:28;;;;;;;6.22;4.53;;;;;;;;;;8275473;28;20086;-58
2023/12/02 19:54:29;;;;;;;7.47;4.78;;;;;;;;;;8275461;28;20082;-57
2023/12/02 19:58:29;;;;;;;6.68;4.95;;;;;;;;;;8276950;28;20286;-57
2023/12/02 20:02:30;;;;;;;23.30;14.10;;;;;;;;;;8273084;28;20086;-58
2023/12/02 20:06:30;;;;;;;17.25;10.18;;;;;;;;;;8275260;28;20817;-57
2023/12/02 20:10:31;;;;;;;18.80;10.30;;;;;;;;;;8272245;28;20037;-57
2023/12/02 20:14:31;;;;;;;15.20;9.18;;;;;;;;;;8277282;28;20024;-57
2023/12/02 20:18:31;;;;;;;11.25;6.40;;;;;;;;;;8272893;28;20082;-57
2023/12/02 20:22:32;;;;;;;11.33;7.27;;;;;;;;;;8274728;28;20029;-57
2023/12/02 20:26:32;;;;;;;8.43;5.88;;;;;;;;;;8273372;28;20293;-57
2023/12/02 20:30:32;;;;;;;9.35;6.03;;;;;;;;;;8274408;28;20060;-58
2023/12/02 20:34:33;;;;;;;10.82;6.43;;;;;;;;;;8275132;28;20044;-57
2023/12/02 20:38:33;;;;;;;11.18;6.65;;;;;;;;;;8272258;28;20066;-58
2023/12/02 20:42:33;;;;;;;12.98;7.00;;;;;;;;;;8266628;28;20524;-57
2023/12/02 20:46:34;;;;;;;9.98;6.28;;;;;;;;;;8274540;28;20414;-57
2023/12/02 20:50:34;;;;;;;10.10;6.88;;;;;;;;;;8277590;28;20017;-57
2023/12/02 20:54:34;;;;;;;9.70;6.78;;;;;;;;;;8262180;28;20029;-57
2023/12/02 20:58:34;;;;;;;10.10;6.53;;;;;;;;;;8278746;28;20129;-57
2023/12/02 21:02:35;;;;;;;8.87;6.77;;;;;;;;;;8271870;28;20735;-57
2023/12/02 21:06:35;;;;;;;10.07;6.72;;;;;;;;;;8274844;28;20276;-56
2023/12/02 21:10:35;;;;;;;10.35;7.00;;;;;;;;;;8274322;28;20027;-56
2023/12/02 21:14:36;;;;;;;10.20;6.55;;;;;;;;;;8273453;28;20136;-56
2023/12/02 21:18:36;;;;;;;16.25;8.25;;;;;;;;;;8272765;28;20482;-54
2023/12/02 21:22:36;;;;;;;17.83;10.35;;;;;;;;;;8268744;28;20029;-56
2023/12/02 21:26:36;;;;;;;10.27;6.80;;;;;;;;;;8272252;28;21532;-56
2023/12/02 21:30:37;;;;;;;21.17;13.05;;;;;;;;;;8269930;28;20060;-55
2023/12/02 21:34:39;;;;;;;32.72;16.67;;;;;;;;;;8269301;28;20561;-56
2023/12/02 21:38:42;;;;;;;11.43;7.05;;;;;;;;;;8271562;28;20984;-55
2023/12/02 21:42:43;;;;;;;9.27;6.38;;;;;;;;;;8268675;28;20025;-56
2023/12/02 21:46:43;;;;;;;10.68;6.85;;;;;;;;;;8268967;28;20025;-56
2023/12/02 21:50:44;;;;;;;10.85;7.20;;;;;;;;;;8267308;28;20025;-56
2023/12/02 21:54:45;;;;;;;11.38;6.82;;;;;;;;;;8271599;28;20028;-56
2023/12/02 21:58:49;;;;;;;11.05;7.15;;;;;;;;;;8272216;28;20018;-56
2023/12/02 22:02:49;;;;;;;11.60;7.00;;;;;;;;;;8273979;28;21142;-56
2023/12/02 22:06:50;;;;;;;11.13;7.03;;;;;;;;;;8271946;28;20036;-56
2023/12/02 22:10:54;;;;;;;10.95;7.03;;;;;;;;;;8271504;28;20146;-56
2023/12/02 22:14:57;;;;;;;9.80;6.93;;;;;;;;;;8270783;28;20045;-57
2023/12/02 22:18:57;;;;;;;11.73;6.97;;;;;;;;;;8268325;28;20060;-57
2023/12/02 22:23:05;;;;;;;11.38;7.57;;;;;;;;;;8264641;28;20394;-56
2023/12/02 22:27:07;;;;;;;12.45;8.45;;;;;;;;;;8264032;28;20030;-56
2023/12/02 22:31:09;;;;;;;12.38;7.15;;;;;;;;;;8272839;28;20086;-60
2023/12/02 22:35:09;;;;;;;10.18;6.55;;;;;;;;;;8273376;28;20029;-57
2023/12/02 22:39:22;;;;;;;10.82;7.00;;;;;;;;;;8276379;28;20032;-57
2023/12/02 22:43:23;;;;;;;11.73;6.90;;;;;;;;;;8280272;28;20691;-56
2023/12/02 22:47:23;;;;;;;10.85;7.45;;;;;;;;;;8280621;28;20033;-56
2023/12/02 22:51:24;;;;;;;10.52;7.85;;;;;;;;;;8275654;28;20033;-55
2023/12/02 22:55:41;;;;;;;10.75;7.53;;;;;;;;;;8281495;28;20100;-56
2023/12/02 22:59:42;;;;;;;11.93;7.65;;;;;;;;;;8279401;28;20060;-56
2023/12/02 23:03:42;;;;;;;12.98;8.18;;;;;;;;;;8281537;28;20141;-56
2023/12/02 23:07:53;;;;;;;11.77;8.20;;;;;;;;;;8281700;28;20035;-56
2023/12/02 23:11:53;;;;;;;13.98;8.82;;;;;;;;;;8276472;28;20406;-57
2023/12/02 23:15:54;;;;;;;12.48;8.65;;;;;;;;;;8282436;28;20192;-57
2023/12/02 23:19:59;;;;;;;13.37;7.93;;;;;;;;;;8286715;28;20030;-57
2023/12/02 23:24:00;;;;;;;14.10;9.02;;;;;;;;;;8286990;28;20279;-57
2023/12/02 23:28:00;;;;;;;11.63;8.35;;;;;;;;;;8287583;28;20026;-58
2023/12/02 23:32:00;;;;;;;12.05;8.18;;;;;;;;;;8275879;28;20043;-57
2023/12/02 23:36:02;;;;;;;12.55;8.02;;;;;;;;;;8279153;28;20157;-57
2023/12/02 23:40:02;;;;;;;12.45;8.65;;;;;;;;;;8279965;28;20657;-57
2023/12/02 23:44:05;;;;;;;13.07;8.93;;;;;;;;;;8276018;28;20022;-57
2023/12/02 23:48:06;;;;;;;14.93;9.23;;;;;;;;;;8277695;28;20040;-55
2023/12/02 23:52:06;;;;;;;15.20;9.73;;;;;;;;;;8278565;28;20021;-57
2023/12/02 23:56:06;;;;;;;16.13;9.27;;;;;;;;;;8283056;28;20029;-58
